GPD88 KSAN-KAVX
Flight info
| Callsign | GPD88 |
|---|---|
| Flight time | N/A |
| Altitude | VFR |
| Route | |
| Aircraft | PC12/L-VGD/C |
Departure
| Time | N/A |
|---|---|
| Airport | San Diego International Airport (KSAN) |
Arrival
| Time | 2026-05-08 22:22 |
|---|---|
| Airport | Catalina Airport (KAVX) |
| Time | Latitude | Longitude | Altitude | Speed | Heading |
|---|---|---|---|---|---|
| 2026-05-08 22:07 | 32.96634 | -117.65415 | 7976 ft | 251 kts | 301° |
| 2026-05-08 22:07 | 32.97552 | -117.67181 | 7970 ft | 251 kts | 301° |
| 2026-05-08 22:08 | 32.98470 | -117.68945 | 7979 ft | 250 kts | 301° |
| 2026-05-08 22:08 | 32.99387 | -117.70710 | 7972 ft | 250 kts | 301° |
| 2026-05-08 22:08 | 33.00305 | -117.72471 | 7975 ft | 250 kts | 301° |
| 2026-05-08 22:08 | 33.01224 | -117.74234 | 7972 ft | 250 kts | 301° |
| 2026-05-08 22:09 | 33.02143 | -117.75996 | 7972 ft | 250 kts | 301° |
| 2026-05-08 22:09 | 33.03062 | -117.77752 | 7977 ft | 250 kts | 301° |
| 2026-05-08 22:09 | 33.03985 | -117.79515 | 7921 ft | 249 kts | 301° |
| 2026-05-08 22:09 | 33.04901 | -117.81258 | 7503 ft | 250 kts | 301° |
| 2026-05-08 22:10 | 33.05830 | -117.83014 | 7026 ft | 251 kts | 302° |
| 2026-05-08 22:10 | 33.06825 | -117.84720 | 6560 ft | 251 kts | 305° |
| 2026-05-08 22:10 | 33.07865 | -117.86383 | 6079 ft | 249 kts | 306° |
| 2026-05-08 22:10 | 33.08898 | -117.88021 | 5595 ft | 244 kts | 306° |
| 2026-05-08 22:11 | 33.09906 | -117.89623 | 5117 ft | 239 kts | 306° |
| 2026-05-08 22:11 | 33.10887 | -117.91198 | 4636 ft | 235 kts | 306° |
| 2026-05-08 22:11 | 33.11854 | -117.92766 | 4145 ft | 233 kts | 306° |
| 2026-05-08 22:11 | 33.12796 | -117.94307 | 3669 ft | 233 kts | 306° |
| 2026-05-08 22:12 | 33.13757 | -117.95890 | 3175 ft | 233 kts | 306° |
| 2026-05-08 22:12 | 33.14676 | -117.97412 | 2977 ft | 221 kts | 306° |
| 2026-05-08 22:12 | 33.15539 | -117.98841 | 2975 ft | 205 kts | 306° |
| 2026-05-08 22:12 | 33.16338 | -118.00179 | 2970 ft | 192 kts | 306° |
| 2026-05-08 22:13 | 33.17088 | -118.01443 | 2966 ft | 181 kts | 306° |
| 2026-05-08 22:13 | 33.17799 | -118.02647 | 2964 ft | 174 kts | 306° |
| 2026-05-08 22:13 | 33.18492 | -118.03802 | 2964 ft | 169 kts | 306° |
| 2026-05-08 22:13 | 33.19207 | -118.04885 | 2962 ft | 162 kts | 317° |
| 2026-05-08 22:14 | 33.20067 | -118.05732 | 2958 ft | 159 kts | 322° |
| 2026-05-08 22:14 | 33.20989 | -118.06588 | 2659 ft | 178 kts | 322° |
| 2026-05-08 22:14 | 33.21982 | -118.07503 | 2347 ft | 192 kts | 322° |
| 2026-05-08 22:14 | 33.23078 | -118.08504 | 2032 ft | 204 kts | 322° |
| 2026-05-08 22:15 | 33.24198 | -118.09531 | 1978 ft | 200 kts | 322° |
| 2026-05-08 22:15 | 33.25290 | -118.10529 | 1977 ft | 195 kts | 322° |
| 2026-05-08 22:15 | 33.26352 | -118.11498 | 1976 ft | 190 kts | 322° |
| 2026-05-08 22:15 | 33.27393 | -118.12443 | 1974 ft | 187 kts | 322° |
| 2026-05-08 22:16 | 33.28423 | -118.13370 | 1986 ft | 184 kts | 322° |
| 2026-05-08 22:16 | 33.29440 | -118.14286 | 1986 ft | 182 kts | 322° |
| 2026-05-08 22:16 | 33.30453 | -118.15191 | 1988 ft | 181 kts | 322° |
| 2026-05-08 22:16 | 33.31458 | -118.16089 | 1988 ft | 180 kts | 322° |
| 2026-05-08 22:17 | 33.32448 | -118.16983 | 1994 ft | 178 kts | 320° |
| 2026-05-08 22:17 | 33.33371 | -118.18093 | 2058 ft | 195 kts | 309° |
| 2026-05-08 22:17 | 33.34305 | -118.19386 | 1867 ft | 216 kts | 310° |
| 2026-05-08 22:17 | 33.35309 | -118.20835 | 1477 ft | 237 kts | 311° |
| 2026-05-08 22:18 | 33.36404 | -118.22224 | 1562 ft | 233 kts | 313° |
| 2026-05-08 22:18 | 33.37535 | -118.23613 | 1369 ft | 223 kts | 310° |
| 2026-05-08 22:18 | 33.38278 | -118.25062 | 1642 ft | 188 kts | 292° |
| 2026-05-08 22:18 | 33.38731 | -118.26486 | 1680 ft | 178 kts | 287° |
| 2026-05-08 22:19 | 33.39053 | -118.27877 | 1813 ft | 169 kts | 282° |
| 2026-05-08 22:19 | 33.39281 | -118.29202 | 2037 ft | 155 kts | 281° |
| 2026-05-08 22:19 | 33.39512 | -118.30438 | 2168 ft | 149 kts | 284° |
| 2026-05-08 22:19 | 33.39724 | -118.31551 | 2462 ft | 133 kts | 281° |
| 2026-05-08 22:20 | 33.39914 | -118.32631 | 2628 ft | 129 kts | 288° |
| 2026-05-08 22:20 | 33.40233 | -118.33635 | 2719 ft | 131 kts | 292° |
| 2026-05-08 22:20 | 33.40550 | -118.34664 | 2761 ft | 135 kts | 290° |
| 2026-05-08 22:20 | 33.40810 | -118.35742 | 2724 ft | 135 kts | 284° |
| 2026-05-08 22:21 | 33.40954 | -118.36850 | 2753 ft | 132 kts | 276° |
| 2026-05-08 22:21 | 33.41006 | -118.37870 | 2717 ft | 109 kts | 276° |
| 2026-05-08 22:21 | 33.41018 | -118.38770 | 2358 ft | 108 kts | 271° |
| 2026-05-08 22:21 | 33.40956 | -118.39652 | 2157 ft | 106 kts | 266° |
| 2026-05-08 22:22 | 33.40869 | -118.40520 | 1901 ft | 98 kts | 263° |
| 2026-05-08 22:22 | 33.40672 | -118.41276 | 1607 ft | 95 kts | 236° |
| 2026-05-08 22:22 | 33.40377 | -118.41787 | 1600 ft | 27 kts | 233° |
| 2026-05-08 22:22 | 33.40301 | -118.41910 | 1607 ft | 14 kts | 233° |
| 2026-05-08 22:23 | 33.40238 | -118.41989 | 1606 ft | 10 kts | 167° |
| 2026-05-08 22:23 | 33.40235 | -118.41963 | 1605 ft | 7 kts | 54° |
| 2026-05-08 22:23 | 33.40293 | -118.41858 | 1602 ft | 19 kts | 54° |
| 2026-05-08 22:23 | 33.40360 | -118.41741 | 1598 ft | 9 kts | 56° |
| 2026-05-08 22:24 | 33.40362 | -118.41653 | 1594 ft | 13 kts | 117° |
| 2026-05-08 22:24 | 33.40341 | -118.41565 | 1594 ft | 12 kts | 80° |
| 2026-05-08 22:24 | 33.40349 | -118.41522 | 1594 ft | 0 kts | 56° |
| 2026-05-08 22:24 | 33.40352 | -118.41523 | 1594 ft | 0 kts | 300° |